createdAt,value
2022-10-08T00:08:46.699Z,32.80
2022-10-08T00:18:56.506Z,32.30
2022-10-08T00:29:05.945Z,32.50
2022-10-08T00:39:16.585Z,30.50
2022-10-08T00:49:25.283Z,29.00
2022-10-08T00:59:32.637Z,29.00
2022-10-08T01:09:43.868Z,29.80
2022-10-08T01:20:14.603Z,29.80
2022-10-08T01:30:22.278Z,28.60
2022-10-08T01:40:36.796Z,29.10
2022-10-08T01:50:46.835Z,30.30
2022-10-08T02:00:54.491Z,31.80
2022-10-08T02:11:01.494Z,29.60
2022-10-08T02:21:16.269Z,28.20
2022-10-08T02:31:28.521Z,26.50
2022-10-08T02:41:41.770Z,28.70
2022-10-08T02:51:49.410Z,27.20
2022-10-08T03:02:01.126Z,25.90
2022-10-08T03:12:09.479Z,21.50
2022-10-08T03:22:16.663Z,22.60
2022-10-08T03:32:24.071Z,20.70
2022-10-08T03:42:31.200Z,20.20
2022-10-08T03:52:38.283Z,20.80
2022-10-08T04:02:45.703Z,21.00
2022-10-08T04:12:53.090Z,18.90
2022-10-08T04:23:00.267Z,19.00
2022-10-08T04:33:07.244Z,20.00
2022-10-08T04:43:14.881Z,18.30
2022-10-08T04:53:21.885Z,18.10
2022-10-08T05:03:28.833Z,16.60
2022-10-08T05:13:36.314Z,15.80
2022-10-08T05:23:44.451Z,15.00
2022-10-08T05:33:52.348Z,13.80
2022-10-08T05:44:02.644Z,12.20
2022-10-08T05:54:09.951Z,11.60
2022-10-08T06:04:17.543Z,11.30
2022-10-08T06:14:25.101Z,11.10
2022-10-08T06:24:32.594Z,10.90
2022-10-08T06:34:38.546Z,9.90
2022-10-08T06:44:45.917Z,9.20
2022-10-08T06:54:53.847Z,10.20
2022-10-08T07:05:01.073Z,11.60
2022-10-08T07:15:09.516Z,9.90
2022-10-08T07:25:15.570Z,9.70
2022-10-08T07:35:22.665Z,10.00
2022-10-08T07:45:29.945Z,8.90
2022-10-08T07:55:37.037Z,9.70
2022-10-08T08:05:44.220Z,8.90
2022-10-08T08:15:56.647Z,8.20
2022-10-08T08:26:02.077Z,9.60
2022-10-08T08:36:10.419Z,10.30
2022-10-08T08:46:22.367Z,10.50
2022-10-08T08:56:30.037Z,9.00
2022-10-08T09:06:39.190Z,10.00
2022-10-08T09:16:46.688Z,10.60
2022-10-08T09:26:54.141Z,10.90
2022-10-08T09:37:03.455Z,12.60
2022-10-08T09:47:14.748Z,11.30
2022-10-08T09:57:23.595Z,9.80
2022-10-08T10:07:40.076Z,11.30
2022-10-08T10:17:50.199Z,11.00
2022-10-08T10:28:00.460Z,11.50
2022-10-08T10:38:03.806Z,12.00
2022-10-08T10:48:09.753Z,12.20
2022-10-08T10:58:41.759Z,12.60
2022-10-08T11:08:52.490Z,20.70
2022-10-08T11:19:02.363Z,14.50
2022-10-08T11:29:09.816Z,14.90
2022-10-08T11:39:17.453Z,19.70
2022-10-08T11:49:54.004Z,15.20
2022-10-08T12:00:06.932Z,14.70
2022-10-08T12:10:30.841Z,15.00
2022-10-08T12:20:38.582Z,14.60
2022-10-08T12:30:56.055Z,15.30
2022-10-08T12:41:05.539Z,15.70
2022-10-08T12:51:22.793Z,17.00
2022-10-08T13:01:30.419Z,14.40
2022-10-08T13:11:37.736Z,12.60
2022-10-08T13:21:58.269Z,14.00
2022-10-08T13:32:03.093Z,13.80
2022-10-08T13:42:15.492Z,13.00
2022-10-08T13:52:24.367Z,13.40
2022-10-08T14:02:32.339Z,14.80
2022-10-08T14:12:39.689Z,14.50
2022-10-08T14:22:46.696Z,12.20
2022-10-08T14:32:54.582Z,15.90
2022-10-08T14:43:01.610Z,15.40
2022-10-08T14:53:08.683Z,15.80
2022-10-08T15:03:16.057Z,16.10
2022-10-08T15:13:23.291Z,13.40
2022-10-08T15:23:30.588Z,15.00
2022-10-08T15:33:37.653Z,16.80
2022-10-08T15:43:45.180Z,15.30
2022-10-08T15:53:52.859Z,18.50
2022-10-08T16:04:00.443Z,20.90
2022-10-08T16:14:10.094Z,22.00
2022-10-08T16:24:17.865Z,20.50
2022-10-08T16:34:27.258Z,20.70
2022-10-08T16:44:34.210Z,22.30
2022-10-08T16:54:41.200Z,21.40
2022-10-08T17:04:48.226Z,23.70
2022-10-08T17:14:55.632Z,45.60
2022-10-08T17:25:02.827Z,27.50
2022-10-08T17:35:07.917Z,29.40
2022-10-08T17:45:15.032Z,26.70
2022-10-08T17:55:20.794Z,26.60
2022-10-08T18:05:27.786Z,26.70
2022-10-08T18:15:37.528Z,26.50
2022-10-08T18:25:44.656Z,25.60
2022-10-08T18:35:51.755Z,25.50
2022-10-08T18:56:12.827Z,24.30
2022-10-08T19:06:21.937Z,22.90
2022-10-08T19:16:29.906Z,22.60
2022-10-08T19:26:36.947Z,27.10
2022-10-08T19:36:44.427Z,27.20
2022-10-08T19:46:51.556Z,25.00
2022-10-08T19:56:57.707Z,20.10
2022-10-08T20:07:04.503Z,18.20
2022-10-08T20:17:11.681Z,16.40
2022-10-08T20:27:18.791Z,15.50
2022-10-08T20:37:23.556Z,14.70
2022-10-08T20:47:29.628Z,12.90
2022-10-08T20:57:35.394Z,13.70
2022-10-08T21:07:41.384Z,13.10
2022-10-08T21:17:48.408Z,10.60
2022-10-08T21:27:55.387Z,10.20
2022-10-08T21:38:02.336Z,8.20
2022-10-08T21:48:09.565Z,11.10
2022-10-08T21:58:16.888Z,6.90
2022-10-08T22:08:24.143Z,5.50
2022-10-08T22:18:33.216Z,4.30
2022-10-08T22:28:41.211Z,4.50
2022-10-08T22:38:49.130Z,4.10
2022-10-08T22:48:57.510Z,4.70
2022-10-08T22:59:05.340Z,3.90
2022-10-08T23:09:14.676Z,3.40
2022-10-08T23:19:22.066Z,6.10
2022-10-08T23:29:29.544Z,6.20
2022-10-08T23:39:36.590Z,7.50
2022-10-08T23:49:43.753Z,7.00
2022-10-08T23:59:49.880Z,4.10
